Time;durP1;ratioP1;P1;durP2;ratioP2;P2;SDS_P1;SDS_P2;PMS_P1;PMS_P2;Temp;Humidity;BMP_temperature;BMP_pressure;BME280_temperature;BME280_humidity;BME280_pressure;Samples;Min_cycle;Max_cycle;Signal;HPM_P1;HPM_P2
2023/12/05 00:00:33;;;;;;;33.80;18.63;;;-4.50;99.90;;;;;;5129597;27;20302;-59
2023/12/05 00:03:03;;;;;;;36.83;19.23;;;-4.70;99.90;;;;;;5129737;27;20210;-59
2023/12/05 00:05:32;;;;;;;46.83;20.20;;;-4.80;99.90;;;;;;5129438;28;20194;-63
2023/12/05 00:08:00;;;;;;;38.77;19.80;;;-4.80;99.90;;;;;;5129344;28;20202;-64
2023/12/05 00:10:29;;;;;;;38.70;19.27;;;-4.90;99.90;;;;;;5129260;28;20618;-63
2023/12/05 00:13:00;;;;;;;36.63;19.10;;;-5.00;99.90;;;;;;5129525;28;20196;-65
2023/12/05 00:15:28;;;;;;;34.20;18.10;;;-4.90;99.90;;;;;;5123245;27;20195;-66
2023/12/05 00:17:59;;;;;;;39.67;19.03;;;-4.80;99.90;;;;;;5117162;28;20297;-64
2023/12/05 00:20:28;;;;;;;33.43;17.70;;;-4.80;99.90;;;;;;5125648;28;20700;-63
2023/12/05 00:22:57;;;;;;;30.83;17.97;;;-4.90;99.90;;;;;;5108834;28;20195;-61
2023/12/05 00:25:25;;;;;;;35.70;19.37;;;-5.00;99.90;;;;;;5108710;28;20222;-57
2023/12/05 00:27:53;;;;;;;30.10;17.73;;;-5.10;99.90;;;;;;5123680;28;20205;-59
2023/12/05 00:30:21;;;;;;;30.77;18.43;;;-5.20;99.90;;;;;;5129322;28;20214;-61
2023/12/05 00:32:50;;;;;;;32.63;18.57;;;-5.00;99.90;;;;;;5129162;28;20202;-62
2023/12/05 00:35:19;;;;;;;32.13;18.00;;;-5.00;99.90;;;;;;5129185;28;20183;-62
2023/12/05 00:37:49;;;;;;;33.80;17.77;;;-5.00;99.90;;;;;;5129354;28;20662;-63
2023/12/05 00:40:17;;;;;;;36.03;17.00;;;-5.10;99.90;;;;;;5121588;28;20227;-63
2023/12/05 00:42:46;;;;;;;36.80;17.67;;;-5.20;99.90;;;;;;5108683;28;20199;-54
2023/12/05 00:45:14;;;;;;;32.10;18.67;;;-5.10;99.90;;;;;;5110449;28;20188;-64
2023/12/05 00:47:43;;;;;;;32.07;18.67;;;-5.20;99.90;;;;;;5112609;28;20195;-58
2023/12/05 00:50:11;;;;;;;31.10;17.40;;;-5.20;99.90;;;;;;5112235;28;20217;-56
2023/12/05 00:52:39;;;;;;;36.13;18.33;;;-5.20;99.90;;;;;;5112500;28;20268;-60
2023/12/05 00:55:09;;;;;;;29.10;16.83;;;-5.10;99.90;;;;;;5112574;28;20199;-57
2023/12/05 00:57:38;;;;;;;27.60;15.73;;;-5.10;99.90;;;;;;5112272;28;20233;-57
2023/12/05 01:00:10;;;;;;;33.50;16.37;;;-5.00;99.90;;;;;;5112713;28;20663;-58
2023/12/05 01:02:38;;;;;;;28.50;15.57;;;-4.90;99.90;;;;;;5112302;28;20195;-58
2023/12/05 01:05:08;;;;;;;26.97;15.80;;;-5.00;99.90;;;;;;5112068;28;20210;-57
2023/12/05 01:07:37;;;;;;;27.00;16.20;;;-4.90;99.90;;;;;;5112096;28;20285;-57
2023/12/05 01:10:06;;;;;;;27.20;15.57;;;-5.00;99.90;;;;;;5112114;28;20185;-57
2023/12/05 01:12:36;;;;;;;25.00;14.20;;;-4.90;99.90;;;;;;5112396;27;20224;-59
2023/12/05 01:15:05;;;;;;;24.67;14.20;;;-4.90;99.90;;;;;;5119855;27;20198;-59
2023/12/05 01:17:33;;;;;;;26.53;14.73;;;-4.90;99.90;;;;;;5114060;27;20203;-58
2023/12/05 01:20:04;;;;;;;29.30;13.60;;;-4.90;99.90;;;;;;5132246;27;20193;-63
2023/12/05 01:22:32;;;;;;;28.23;13.87;;;-4.90;99.90;;;;;;5112806;27;20201;-64
2023/12/05 01:25:00;;;;;;;23.07;14.77;;;-5.00;99.90;;;;;;5111566;28;20198;-65
2023/12/05 01:27:29;;;;;;;24.40;13.87;;;-5.10;99.90;;;;;;5111524;28;20199;-64
2023/12/05 01:29:58;;;;;;;24.43;13.97;;;-5.10;99.90;;;;;;5111584;28;20221;-63
2023/12/05 01:32:27;;;;;;;30.10;15.37;;;-5.00;99.90;;;;;;5111472;28;20675;-65
2023/12/05 01:34:56;;;;;;;34.77;19.20;;;-5.00;99.90;;;;;;5113912;27;20655;-66
2023/12/05 01:37:25;;;;;;;32.53;17.60;;;-5.10;99.90;;;;;;5132042;27;20193;-65
2023/12/05 01:39:53;;;;;;;32.47;17.00;;;-5.00;99.90;;;;;;5131974;27;20188;-66
2023/12/05 01:42:21;;;;;;;32.47;17.30;;;-4.80;99.90;;;;;;5131704;27;20597;-63
2023/12/05 01:44:50;;;;;;;38.30;20.20;;;-4.70;99.90;;;;;;5131712;27;20828;-66
2023/12/05 01:47:19;;;;;;;33.23;17.80;;;-4.60;99.90;;;;;;5131758;27;20727;-66
2023/12/05 01:49:48;;;;;;;35.10;17.17;;;-4.60;99.90;;;;;;5131667;27;20984;-65
2023/12/05 01:52:17;;;;;;;38.83;19.23;;;-4.70;99.90;;;;;;5130986;27;20727;-67
2023/12/05 01:54:46;;;;;;;40.87;19.87;;;-4.60;99.90;;;;;;5131675;27;20260;-65
2023/12/05 01:57:14;;;;;;;43.77;21.53;;;-4.60;99.90;;;;;;5131317;27;20190;-65
2023/12/05 01:59:43;;;;;;;42.20;22.47;;;-4.50;99.90;;;;;;5131484;27;20204;-64
2023/12/05 02:02:11;;;;;;;47.17;23.87;;;-4.40;99.90;;;;;;5131397;27;20226;-66
2023/12/05 02:04:41;;;;;;;40.80;21.23;;;-4.40;99.90;;;;;;5131405;27;20201;-64
2023/12/05 02:07:09;;;;;;;41.83;20.47;;;-4.40;99.90;;;;;;5131275;27;20272;-66
2023/12/05 02:09:39;;;;;;;37.83;20.63;;;-4.40;99.90;;;;;;5131088;27;20195;-66
2023/12/05 02:12:07;;;;;;;37.43;20.67;;;-4.40;99.90;;;;;;5131284;27;20190;-63
2023/12/05 02:14:36;;;;;;;37.13;21.33;;;-4.50;99.90;;;;;;5131327;27;20204;-64
2023/12/05 02:17:11;;;;;;;41.87;23.07;;;-4.60;99.90;;;;;;5131406;27;20245;-66
2023/12/05 02:19:59;;;;;;;55.50;24.33;;;-4.60;99.90;;;;;;5131148;27;20192;-66
2023/12/05 02:22:53;;;;;;;51.87;26.00;;;-4.60;99.90;;;;;;5067434;28;20231;-66
2023/12/05 02:25:32;;;;;;;37.80;20.60;;;-4.60;99.90;;;;;;5067510;28;20218;-66
2023/12/05 02:28:03;;;;;;;25.63;13.93;;;-4.50;99.90;;;;;;5067135;28;20679;-66
2023/12/05 02:30:32;;;;;;;30.77;17.97;;;-4.50;99.90;;;;;;5067427;28;20218;-66
2023/12/05 02:33:00;;;;;;;30.43;16.60;;;-4.50;99.90;;;;;;5066954;28;20203;-66
2023/12/05 02:35:29;;;;;;;27.57;14.43;;;-4.50;99.90;;;;;;5066877;28;20710;-65
2023/12/05 02:38:05;;;;;;;22.37;12.90;;;-4.50;99.90;;;;;;5066891;28;20251;-66
2023/12/05 02:40:37;;;;;;;28.80;14.83;;;-4.60;99.90;;;;;;5094860;27;20255;-66
2023/12/05 02:43:12;;;;;;;24.33;13.83;;;-4.60;99.90;;;;;;5130486;27;21083;-66
2023/12/05 02:45:41;;;;;;;28.97;15.10;;;-4.60;99.90;;;;;;5130686;27;20218;-65
2023/12/05 02:48:12;;;;;;;30.57;16.67;;;-4.80;99.90;;;;;;5130339;27;20266;-64
2023/12/05 02:50:41;;;;;;;24.67;15.40;;;-5.00;99.90;;;;;;5130293;27;20187;-65
2023/12/05 02:53:09;;;;;;;23.83;15.03;;;-5.10;99.90;;;;;;5130510;27;20730;-66
2023/12/05 02:55:39;;;;;;;22.77;13.17;;;-5.00;99.90;;;;;;5130513;27;20199;-65
2023/12/05 02:58:09;;;;;;;15.57;9.53;;;-5.10;99.90;;;;;;5130288;27;20230;-64
2023/12/05 03:00:37;;;;;;;12.33;7.83;;;-5.10;99.90;;;;;;5130537;27;20240;-60
2023/12/05 03:03:05;;;;;;;13.60;7.83;;;-5.10;99.90;;;;;;5130546;27;20698;-67
2023/12/05 03:05:34;;;;;;;9.50;6.97;;;-5.00;99.90;;;;;;5130575;27;20564;-67
2023/12/05 03:08:02;;;;;;;12.33;7.63;;;-5.10;99.90;;;;;;5130037;27;20221;-66
2023/12/05 03:10:30;;;;;;;11.93;7.80;;;-5.00;99.90;;;;;;5130289;27;20196;-64
2023/12/05 03:12:59;;;;;;;9.27;6.33;;;-5.00;99.90;;;;;;5130361;27;20208;-66
2023/12/05 03:15:28;;;;;;;13.23;7.40;;;-4.90;99.90;;;;;;5130204;27;20203;-65
2023/12/05 03:17:57;;;;;;;14.07;8.40;;;-5.10;99.90;;;;;;5130082;27;20200;-64
2023/12/05 03:20:25;;;;;;;13.27;8.10;;;-5.20;99.90;;;;;;5130165;27;20193;-63
2023/12/05 03:22:53;;;;;;;14.43;8.20;;;-5.20;99.90;;;;;;5129757;27;20226;-65
2023/12/05 03:25:22;;;;;;;13.60;7.27;;;-5.20;99.90;;;;;;5111588;27;20203;-61
2023/12/05 03:27:50;;;;;;;10.53;6.83;;;-5.10;99.90;;;;;;5129516;27;20234;-59
2023/12/05 03:30:18;;;;;;;13.33;8.60;;;-5.00;99.90;;;;;;5129716;27;20191;-62
2023/12/05 03:32:48;;;;;;;20.40;11.80;;;-5.00;99.90;;;;;;5129673;27;20315;-61
2023/12/05 03:35:16;;;;;;;23.63;12.87;;;-5.10;99.90;;;;;;5129681;27;20189;-62
2023/12/05 03:37:45;;;;;;;23.70;12.70;;;-5.20;99.90;;;;;;5129480;27;20198;-63
2023/12/05 03:40:13;;;;;;;21.87;13.37;;;-5.10;99.90;;;;;;5129651;27;20233;-63
2023/12/05 03:42:41;;;;;;;24.13;12.70;;;-5.10;99.90;;;;;;5126639;27;20304;-60
2023/12/05 03:45:10;;;;;;;23.97;13.17;;;-5.10;99.90;;;;;;5129379;27;20221;-62
2023/12/05 03:47:38;;;;;;;20.30;12.33;;;-5.20;99.90;;;;;;5129513;27;20211;-58
2023/12/05 03:50:09;;;;;;;17.53;10.23;;;-5.20;99.90;;;;;;5129467;27;20195;-59
2023/12/05 03:52:37;;;;;;;22.50;11.33;;;-5.30;99.90;;;;;;5129324;27;20188;-59
2023/12/05 03:55:06;;;;;;;20.20;13.23;;;-5.30;99.90;;;;;;5129598;27;20193;-57
2023/12/05 03:57:34;;;;;;;20.63;11.80;;;-5.30;99.90;;;;;;5129084;27;20189;-64
2023/12/05 04:00:04;;;;;;;23.20;11.03;;;-5.40;99.90;;;;;;5131454;27;20200;-63
2023/12/05 04:02:38;;;;;;;17.37;11.00;;;-5.40;99.90;;;;;;5116224;28;20302;-63
2023/12/05 04:05:09;;;;;;;19.77;11.20;;;-5.30;99.90;;;;;;5109510;28;20197;-62
2023/12/05 04:07:37;;;;;;;19.20;11.40;;;-5.30;99.90;;;;;;5115212;28;20216;-64
2023/12/05 04:10:07;;;;;;;22.40;12.60;;;-5.30;99.90;;;;;;5129343;28;20693;-63
2023/12/05 04:12:35;;;;;;;21.77;11.33;;;-5.40;99.90;;;;;;5122591;28;20204;-63
2023/12/05 04:15:05;;;;;;;19.00;11.67;;;-5.40;99.90;;;;;;5118363;28;20233;-65
2023/12/05 04:17:34;;;;;;;21.70;13.10;;;-5.40;99.90;;;;;;5122806;28;20198;-59
2023/12/05 04:20:04;;;;;;;24.80;12.63;;;-5.50;99.90;;;;;;5110397;28;20193;-60
2023/12/05 04:22:34;;;;;;;20.20;11.27;;;-5.50;99.90;;;;;;5115295;27;20219;-59
2023/12/05 04:25:03;;;;;;;18.13;10.27;;;-5.60;99.90;;;;;;5133293;27;20208;-60
2023/12/05 04:27:31;;;;;;;21.00;11.30;;;-5.50;99.90;;;;;;5133360;27;20208;-62
2023/12/05 04:30:00;;;;;;;17.40;9.63;;;-5.50;99.90;;;;;;5133205;27;20212;-60
2023/12/05 04:32:28;;;;;;;17.37;10.57;;;-5.50;99.90;;;;;;5133311;27;20741;-63
2023/12/05 04:34:57;;;;;;;17.93;10.60;;;-5.50;99.90;;;;;;5120129;27;20205;-64
2023/12/05 04:37:25;;;;;;;18.63;9.97;;;-5.50;99.90;;;;;;5112242;28;20201;-62
2023/12/05 04:39:55;;;;;;;18.03;10.53;;;-5.50;99.90;;;;;;5112355;28;20201;-65
2023/12/05 04:42:23;;;;;;;22.63;10.97;;;-5.50;99.90;;;;;;5128774;27;20222;-64
2023/12/05 04:44:51;;;;;;;18.77;10.43;;;-5.60;99.90;;;;;;5130997;27;20779;-64
2023/12/05 04:47:20;;;;;;;19.23;10.37;;;-5.70;99.90;;;;;;5127497;27;20201;-64
2023/12/05 04:49:48;;;;;;;16.70;10.97;;;-5.70;99.90;;;;;;5130074;27;20678;-63
2023/12/05 04:52:17;;;;;;;20.27;11.33;;;-5.70;99.90;;;;;;5131765;27;20595;-62
2023/12/05 04:54:45;;;;;;;19.03;10.67;;;-5.70;99.90;;;;;;5132211;27;20211;-63
2023/12/05 04:57:15;;;;;;;18.63;11.40;;;-5.80;99.90;;;;;;5131944;27;20207;-60
2023/12/05 04:59:43;;;;;;;19.43;11.37;;;-5.80;99.90;;;;;;5131660;27;20200;-60
2023/12/05 05:02:12;;;;;;;20.07;11.20;;;-5.90;99.90;;;;;;5131649;27;20251;-62
2023/12/05 05:04:41;;;;;;;19.40;10.70;;;-5.90;99.90;;;;;;5131668;27;20288;-62
2023/12/05 05:07:10;;;;;;;19.23;11.17;;;-5.80;99.90;;;;;;5128253;27;20203;-60
2023/12/05 05:09:41;;;;;;;19.00;11.07;;;-5.90;99.90;;;;;;5131448;27;20249;-63
2023/12/05 05:12:10;;;;;;;26.93;13.70;;;-5.90;99.90;;;;;;5132447;27;20335;-63
2023/12/05 05:14:40;;;;;;;24.70;14.27;;;-5.80;99.90;;;;;;5132301;27;20250;-58
2023/12/05 05:17:09;;;;;;;25.80;14.27;;;-5.70;99.90;;;;;;5132350;27;20255;-58
2023/12/05 05:19:37;;;;;;;22.57;13.93;;;-5.70;99.90;;;;;;5132447;27;20584;-61
2023/12/05 05:22:05;;;;;;;32.77;16.43;;;-5.70;99.90;;;;;;5132281;27;20198;-60
2023/12/05 05:24:34;;;;;;;35.30;19.80;;;-5.80;99.90;;;;;;5132344;27;20219;-60
2023/12/05 05:27:03;;;;;;;58.50;30.43;;;-5.80;99.90;;;;;;5132193;27;20200;-59
2023/12/05 05:29:31;;;;;;;45.53;25.97;;;-5.70;99.90;;;;;;5132013;27;20636;-59
2023/12/05 05:32:01;;;;;;;42.80;22.67;;;-5.60;99.90;;;;;;5131724;27;20274;-59
2023/12/05 05:34:29;;;;;;;38.07;20.53;;;-5.60;99.90;;;;;;5132207;27;20235;-63
2023/12/05 05:36:57;;;;;;;44.53;23.83;;;-5.60;99.90;;;;;;5131987;27;20837;-63
2023/12/05 05:39:26;;;;;;;41.80;24.03;;;-5.60;99.90;;;;;;5131984;27;20276;-62
2023/12/05 05:41:54;;;;;;;44.17;23.27;;;-5.50;99.90;;;;;;5131857;27;20564;-63
2023/12/05 05:44:23;;;;;;;37.47;19.47;;;-5.40;99.90;;;;;;5131421;27;20220;-61
2023/12/05 05:46:51;;;;;;;29.27;16.63;;;-5.40;99.90;;;;;;5131683;27;20257;-63
2023/12/05 05:49:21;;;;;;;31.80;18.10;;;-5.40;99.90;;;;;;5131568;27;20196;-64
2023/12/05 05:51:49;;;;;;;36.37;18.33;;;-5.50;99.90;;;;;;5131650;27;20227;-66
2023/12/05 05:54:18;;;;;;;33.87;17.73;;;-5.60;99.90;;;;;;5131683;27;20195;-65
2023/12/05 05:56:46;;;;;;;28.40;16.00;;;-5.60;99.90;;;;;;5131701;27;20196;-64
2023/12/05 05:59:14;;;;;;;18.37;11.37;;;-5.50;99.90;;;;;;5131090;27;20224;-65
2023/12/05 06:01:43;;;;;;;20.93;12.77;;;-5.50;99.90;;;;;;5131736;27;20272;-65
2023/12/05 06:04:11;;;;;;;19.90;12.07;;;-5.50;99.90;;;;;;5131480;27;20227;-64
2023/12/05 06:06:41;;;;;;;22.17;12.43;;;-5.50;99.90;;;;;;5131493;27;20730;-64
2023/12/05 06:09:09;;;;;;;19.43;12.90;;;-5.50;99.90;;;;;;5131336;27;20192;-61
2023/12/05 06:11:38;;;;;;;18.90;11.77;;;-5.50;99.90;;;;;;5131375;27;20653;-65
2023/12/05 06:14:07;;;;;;;21.43;12.23;;;-5.60;99.90;;;;;;5131639;27;20202;-63
2023/12/05 06:16:35;;;;;;;20.20;12.03;;;-5.60;99.90;;;;;;5131423;27;20192;-62
2023/12/05 06:19:03;;;;;;;18.40;11.57;;;-5.70;99.90;;;;;;5131689;27;20207;-62
2023/12/05 06:21:32;;;;;;;25.13;12.47;;;-5.70;99.90;;;;;;5131396;27;20199;-65
2023/12/05 06:24:01;;;;;;;21.70;12.90;;;-5.80;99.90;;;;;;5131092;27;20219;-63
2023/12/05 06:26:30;;;;;;;24.60;14.00;;;-5.90;99.90;;;;;;5131155;27;20197;-63
2023/12/05 06:28:58;;;;;;;26.17;13.93;;;-5.80;99.90;;;;;;5130940;27;20672;-64
2023/12/05 06:31:26;;;;;;;24.13;13.43;;;-5.80;99.90;;;;;;5131112;27;20729;-63
2023/12/05 06:33:55;;;;;;;21.13;13.70;;;-5.80;99.90;;;;;;5131001;27;20933;-64
2023/12/05 06:36:23;;;;;;;23.13;16.53;;;-5.90;99.90;;;;;;5130980;27;20620;-65
2023/12/05 06:38:51;;;;;;;28.10;16.67;;;-5.90;99.90;;;;;;5131293;27;20196;-64
2023/12/05 06:41:21;;;;;;;26.03;15.40;;;-5.80;99.90;;;;;;5130972;27;20192;-64
2023/12/05 06:43:50;;;;;;;25.30;14.07;;;-5.70;99.90;;;;;;5130191;27;20224;-58
2023/12/05 06:46:18;;;;;;;23.67;14.30;;;-5.60;99.90;;;;;;5130860;27;20598;-62
2023/12/05 06:48:48;;;;;;;28.53;14.77;;;-5.60;99.90;;;;;;5130826;27;20192;-60
2023/12/05 06:51:18;;;;;;;23.73;14.63;;;-5.60;99.90;;;;;;5130593;27;20242;-62
2023/12/05 06:53:47;;;;;;;26.37;16.30;;;-5.60;99.90;;;;;;5130685;27;20192;-61
2023/12/05 06:56:21;;;;;;;26.10;15.20;;;-5.60;99.90;;;;;;5130569;27;20200;-61
2023/12/05 06:58:49;;;;;;;29.60;17.07;;;-5.70;99.90;;;;;;5113427;27;20701;-64
2023/12/05 07:01:18;;;;;;;25.23;14.50;;;-5.70;99.90;;;;;;5130505;27;20673;-64
2023/12/05 07:03:47;;;;;;;28.90;14.77;;;-5.70;99.90;;;;;;5130196;27;20243;-60
2023/12/05 07:06:20;;;;;;;21.70;14.97;;;-5.60;99.90;;;;;;5130337;27;20189;-60
2023/12/05 07:08:49;;;;;;;24.43;15.40;;;-5.50;99.90;;;;;;5130022;27;20564;-64
2023/12/05 07:11:17;;;;;;;24.63;13.87;;;-5.40;99.90;;;;;;5130215;27;20187;-61
2023/12/05 07:13:48;;;;;;;22.33;14.30;;;-5.30;99.90;;;;;;5130128;27;20195;-62
2023/12/05 07:16:17;;;;;;;21.63;13.20;;;-5.30;99.90;;;;;;5130112;27;20674;-62
2023/12/05 07:18:45;;;;;;;18.47;12.80;;;-5.20;99.90;;;;;;5129978;27;20191;-59
2023/12/05 07:21:14;;;;;;;18.73;9.90;;;-5.20;99.90;;;;;;5129811;27;20280;-58
2023/12/05 07:23:42;;;;;;;20.57;9.67;;;-5.10;99.90;;;;;;5129785;27;20929;-62
2023/12/05 07:26:14;;;;;;;26.30;14.77;;;-5.10;99.90;;;;;;5129993;27;20188;-58
2023/12/05 07:28:44;;;;;;;21.80;12.50;;;-5.10;99.90;;;;;;5129682;27;20228;-60
2023/12/05 07:31:14;;;;;;;22.07;12.97;;;-5.10;99.90;;;;;;5129817;27;20207;-58
2023/12/05 07:33:42;;;;;;;18.83;11.27;;;-5.10;99.90;;;;;;5129766;27;20958;-58
2023/12/05 07:36:12;;;;;;;21.10;12.50;;;-5.10;99.90;;;;;;5129634;27;20223;-60
2023/12/05 07:38:40;;;;;;;24.63;15.03;;;-5.10;99.90;;;;;;5129566;27;20184;-61
2023/12/05 07:41:18;;;;;;;24.57;13.27;;;-4.90;99.90;;;;;;5129379;27;20211;-58
2023/12/05 07:43:49;;;;;;;28.40;16.43;;;-5.00;99.90;;;;;;5129634;27;20191;-60
2023/12/05 07:46:19;;;;;;;102.50;43.80;;;-5.00;99.90;;;;;;5129536;27;20198;-58
2023/12/05 07:48:47;;;;;;;266.33;102.43;;;-5.00;99.90;;;;;;5129504;27;20190;-62
2023/12/05 07:51:17;;;;;;;250.47;106.17;;;-4.80;99.90;;;;;;5129434;27;20240;-59
2023/12/05 07:53:49;;;;;;;243.00;108.90;;;-4.80;99.90;;;;;;5129363;27;20654;-59
2023/12/05 07:56:17;;;;;;;270.47;118.63;;;-4.60;99.90;;;;;;5129437;27;20186;-61
2023/12/05 07:58:46;;;;;;;248.53;114.57;;;-4.50;99.90;;;;;;5129269;27;20228;-61
2023/12/05 08:01:14;;;;;;;244.20;103.23;;;-4.40;99.90;;;;;;5110915;28;20332;-59
2023/12/05 08:03:44;;;;;;;262.10;106.70;;;-4.30;99.90;;;;;;5129524;28;20561;-60
2023/12/05 08:06:12;;;;;;;233.83;100.50;;;-4.30;99.90;;;;;;5129587;28;20614;-60
2023/12/05 08:08:41;;;;;;;186.90;86.33;;;-4.30;99.90;;;;;;5129269;28;20191;-59
2023/12/05 08:11:11;;;;;;;186.57;83.07;;;-4.40;99.90;;;;;;5129283;28;20266;-61
2023/12/05 08:13:39;;;;;;;181.03;79.50;;;-4.30;99.90;;;;;;5129324;28;20985;-61
2023/12/05 08:16:09;;;;;;;187.13;86.63;;;-4.30;99.90;;;;;;5129292;28;20189;-61
2023/12/05 08:18:37;;;;;;;226.93;101.57;;;-4.30;99.90;;;;;;5129397;28;20204;-60
2023/12/05 08:21:08;;;;;;;184.67;83.57;;;-4.30;99.90;;;;;;5129268;28;20569;-59
2023/12/05 08:23:37;;;;;;;169.77;83.30;;;-4.20;99.90;;;;;;5129139;28;20227;-60
2023/12/05 08:26:05;;;;;;;186.40;81.90;;;-4.10;99.90;;;;;;5128991;28;20268;-60
2023/12/05 08:28:34;;;;;;;172.37;80.57;;;-4.00;99.90;;;;;;5129097;28;20653;-60
2023/12/05 08:31:03;;;;;;;170.07;81.97;;;-4.00;99.90;;;;;;5129039;28;20684;-63
2023/12/05 08:33:31;;;;;;;189.00;89.23;;;-3.90;99.90;;;;;;5129222;28;20197;-65
2023/12/05 08:36:01;;;;;;;184.27;84.50;;;-3.90;99.90;;;;;;5129070;28;20237;-64
2023/12/05 08:38:31;;;;;;;189.50;88.17;;;-3.90;99.90;;;;;;5128866;28;20193;-61
2023/12/05 08:40:59;;;;;;;195.90;87.57;;;-3.80;99.90;;;;;;5128817;28;20223;-61
2023/12/05 08:43:27;;;;;;;205.17;92.37;;;-3.80;99.90;;;;;;5129119;28;20670;-65
2023/12/05 08:45:56;;;;;;;187.53;90.13;;;-3.70;99.90;;;;;;5129156;28;20218;-61
2023/12/05 08:48:24;;;;;;;199.63;94.10;;;-3.70;99.90;;;;;;5128996;28;20268;-59
2023/12/05 08:50:53;;;;;;;222.03;104.53;;;-3.70;99.90;;;;;;5129015;28;20191;-63
2023/12/05 08:53:21;;;;;;;224.47;103.53;;;-3.60;99.90;;;;;;5128846;28;20195;-61
2023/12/05 08:55:51;;;;;;;218.43;102.33;;;-3.60;99.90;;;;;;5128970;28;20197;-63
2023/12/05 08:58:19;;;;;;;177.63;88.53;;;-3.50;99.90;;;;;;5128877;28;20291;-61
2023/12/05 09:00:48;;;;;;;180.40;93.63;;;-3.40;99.90;;;;;;5129013;28;20199;-65
2023/12/05 09:03:16;;;;;;;125.43;62.57;;;-3.10;99.90;;;;;;5129082;28;20192;-63
2023/12/05 09:05:45;;;;;;;56.57;31.37;;;-3.00;99.90;;;;;;5129982;27;20218;-64
2023/12/05 09:08:13;;;;;;;36.67;20.00;;;-2.50;99.90;;;;;;5133378;27;20221;-58
2023/12/05 09:10:42;;;;;;;23.67;13.73;;;-2.00;99.90;;;;;;5132852;27;20656;-62
2023/12/05 09:13:11;;;;;;;25.23;13.93;;;-1.80;99.90;;;;;;5133071;27;20198;-58
2023/12/05 09:15:40;;;;;;;21.83;11.17;;;-1.70;99.90;;;;;;5132767;27;20194;-62
2023/12/05 09:18:09;;;;;;;29.60;15.97;;;-1.60;99.90;;;;;;5132706;27;20191;-61
2023/12/05 09:20:38;;;;;;;27.10;16.67;;;-1.50;99.90;;;;;;5132707;27;20291;-64
2023/12/05 09:23:06;;;;;;;36.53;25.03;;;-1.30;99.90;;;;;;5132494;27;20238;-60
2023/12/05 09:25:34;;;;;;;21.10;11.67;;;-1.20;99.90;;;;;;5132514;27;20698;-61
2023/12/05 09:28:03;;;;;;;20.87;11.53;;;-1.20;99.90;;;;;;5132318;27;20191;-61
2023/12/05 09:30:33;;;;;;;20.37;11.57;;;-1.10;99.90;;;;;;5132408;27;20271;-64
2023/12/05 09:33:01;;;;;;;20.23;11.83;;;-1.10;99.90;;;;;;5132100;27;20664;-63
2023/12/05 09:35:30;;;;;;;33.07;15.03;;;-1.00;99.90;;;;;;5132245;27;20648;-61
2023/12/05 09:37:58;;;;;;;22.90;13.27;;;-1.00;99.90;;;;;;5132118;27;20299;-63
2023/12/05 09:40:27;;;;;;;24.50;12.73;;;-1.00;99.90;;;;;;5131812;27;20187;-64
2023/12/05 09:42:57;;;;;;;22.90;11.37;;;-0.90;99.90;;;;;;5131913;27;20992;-59
2023/12/05 09:45:28;;;;;;;21.17;11.07;;;-0.90;99.90;;;;;;5131958;27;20762;-59
2023/12/05 09:48:01;;;;;;;27.87;17.90;;;-0.90;99.90;;;;;;5132006;27;20197;-58
2023/12/05 09:50:30;;;;;;;21.87;11.07;;;-0.80;99.90;;;;;;5132093;27;20251;-59
2023/12/05 09:53:00;;;;;;;19.37;10.83;;;-0.80;99.90;;;;;;5131815;27;20204;-58
2023/12/05 09:55:29;;;;;;;27.23;14.93;;;-0.80;99.90;;;;;;5131533;27;20195;-62
2023/12/05 09:57:58;;;;;;;22.90;13.93;;;-0.80;99.90;;;;;;5131520;27;20338;-59
2023/12/05 10:00:26;;;;;;;23.00;12.40;;;-0.80;99.90;;;;;;5132059;27;20186;-58
2023/12/05 10:02:57;;;;;;;22.10;11.10;;;-0.70;99.90;;;;;;5113282;27;20673;-62
2023/12/05 10:05:30;;;;;;;19.53;12.07;;;-0.70;99.90;;;;;;5132018;27;20241;-62
2023/12/05 10:07:59;;;;;;;25.00;12.53;;;-0.70;99.90;;;;;;5131924;27;20286;-60
2023/12/05 10:10:31;;;;;;;20.50;11.33;;;-0.70;99.90;;;;;;5131611;27;20618;-63
2023/12/05 10:13:02;;;;;;;20.53;10.90;;;-0.60;99.90;;;;;;5131928;27;20190;-62
2023/12/05 10:15:31;;;;;;;21.40;11.07;;;-0.60;99.80;;;;;;5113287;27;20276;-64
2023/12/05 10:18:02;;;;;;;19.67;11.87;;;-0.60;99.90;;;;;;5131682;27;20195;-62
2023/12/05 10:20:32;;;;;;;22.50;11.80;;;-0.50;99.90;;;;;;5131861;27;20195;-66
2023/12/05 10:23:01;;;;;;;23.37;11.57;;;-0.50;99.90;;;;;;5131758;27;20195;-67
2023/12/05 10:25:29;;;;;;;22.57;12.30;;;-0.50;99.90;;;;;;5131615;27;20222;-64
2023/12/05 10:28:02;;;;;;;23.33;12.07;;;-0.50;99.90;;;;;;5131425;27;20191;-64
2023/12/05 10:30:34;;;;;;;23.20;11.73;;;-0.40;99.90;;;;;;5131431;27;20854;-65
2023/12/05 10:33:13;;;;;;;23.33;12.07;;;-0.50;99.90;;;;;;5131359;27;20203;-67
2023/12/05 10:35:43;;;;;;;13.23;8.20;;;-0.50;99.90;;;;;;5131547;27;20232;-65
2023/12/05 10:38:13;;;;;;;19.37;10.67;;;-0.40;99.70;;;;;;5131353;27;20195;-61
2023/12/05 10:40:52;;;;;;;18.37;10.90;;;-0.40;99.90;;;;;;5131228;27;20601;-65
2023/12/05 10:43:21;;;;;;;17.83;10.17;;;-0.40;99.80;;;;;;5131261;27;20278;-63
2023/12/05 10:45:49;;;;;;;19.67;11.53;;;-0.50;98.00;;;;;;5131392;27;20249;-59
2023/12/05 10:48:19;;;;;;;19.37;10.73;;;-0.50;99.80;;;;;;5131203;27;20198;-61
2023/12/05 10:50:51;;;;;;;18.30;10.40;;;-0.50;99.70;;;;;;5131308;27;20202;-65
2023/12/05 10:53:20;;;;;;;17.20;10.17;;;-0.50;99.90;;;;;;5131125;27;20306;-64
2023/12/05 10:55:48;;;;;;;16.00;10.00;;;-0.50;98.80;;;;;;5131018;27;20644;-59
2023/12/05 10:58:16;;;;;;;17.90;9.13;;;-0.60;98.80;;;;;;5130882;27;20249;-64
2023/12/05 11:00:45;;;;;;;17.90;8.73;;;-0.60;98.40;;;;;;5131090;27;20195;-64
2023/12/05 11:03:14;;;;;;;18.03;10.20;;;-0.60;98.30;;;;;;5131277;27;20191;-60
2023/12/05 11:05:43;;;;;;;18.40;9.80;;;-0.70;99.70;;;;;;5131039;27;20229;-61
2023/12/05 11:08:12;;;;;;;18.77;10.17;;;-0.70;99.90;;;;;;5131060;27;20202;-62
2023/12/05 11:10:41;;;;;;;20.30;11.43;;;-0.60;99.90;;;;;;5130944;27;20199;-60
2023/12/05 11:13:12;;;;;;;19.47;10.87;;;-0.60;99.90;;;;;;5130881;27;20660;-62
2023/12/05 11:15:42;;;;;;;19.63;11.63;;;-0.60;99.60;;;;;;5130759;27;20187;-60
2023/12/05 11:18:26;;;;;;;15.10;10.23;;;-0.50;99.50;;;;;;5130875;27;20274;-59
2023/12/05 11:21:05;;;;;;;17.07;9.50;;;-0.50;98.30;;;;;;5130752;27;20190;-64
2023/12/05 11:24:01;;;;;;;20.10;11.17;;;-0.50;97.50;;;;;;5131028;27;20226;-66
2023/12/05 11:26:52;;;;;;;17.57;10.40;;;-0.50;97.00;;;;;;5130841;27;20225;-65
2023/12/05 11:29:39;;;;;;;18.27;10.20;;;-0.40;98.60;;;;;;5130203;27;20195;-64
2023/12/05 11:32:18;;;;;;;18.33;10.73;;;-0.30;96.40;;;;;;5130764;27;20199;-63
2023/12/05 11:35:04;;;;;;;16.60;9.47;;;-0.30;98.70;;;;;;5130700;27;20187;-62
2023/12/05 11:37:51;;;;;;;24.53;11.37;;;-0.30;95.40;;;;;;5130513;27;20740;-63
2023/12/05 11:40:21;;;;;;;16.40;9.57;;;-0.30;98.00;;;;;;5130518;27;20208;-64
2023/12/05 11:43:05;;;;;;;16.63;10.60;;;-0.20;96.30;;;;;;5130590;27;20277;-64
2023/12/05 11:45:35;;;;;;;14.23;9.60;;;-0.20;94.80;;;;;;5130537;27;20206;-66
2023/12/05 11:48:04;;;;;;;12.83;8.60;;;-0.10;94.70;;;;;;5130469;27;20219;-65
2023/12/05 11:50:43;;;;;;;13.40;8.70;;;-0.20;94.90;;;;;;5130524;27;20199;-66
2023/12/05 11:53:14;;;;;;;18.30;11.30;;;-0.20;94.70;;;;;;5130615;27;20269;-66
2023/12/05 11:55:47;;;;;;;21.00;11.40;;;-0.20;96.00;;;;;;5130535;27;20207;-66
2023/12/05 11:58:29;;;;;;;20.73;12.70;;;-0.20;94.70;;;;;;5130147;27;20280;-63
2023/12/05 12:01:06;;;;;;;16.40;9.73;;;-0.10;96.20;;;;;;5130476;27;20191;-65
2023/12/05 12:03:46;;;;;;;17.37;10.50;;;-0.10;94.00;;;;;;5130508;28;20197;-66
2023/12/05 12:06:16;;;;;;;15.17;10.10;;;-0.10;96.40;;;;;;5130000;28;20238;-66
2023/12/05 12:08:46;;;;;;;16.33;9.43;;;-0.10;94.70;;;;;;5130179;28;20214;-66
2023/12/05 12:11:22;;;;;;;18.00;12.27;;;0.00;95.60;;;;;;5130015;28;20191;-66
2023/12/05 12:13:51;;;;;;;15.67;10.63;;;0.00;96.00;;;;;;5130176;28;20237;-66
2023/12/05 12:16:21;;;;;;;22.17;13.03;;;0.00;95.20;;;;;;5130260;28;20191;-63
2023/12/05 12:18:50;;;;;;;23.27;13.30;;;0.10;96.00;;;;;;5130220;28;20203;-66
2023/12/05 12:21:23;;;;;;;25.13;12.53;;;0.10;93.80;;;;;;5130196;28;20562;-65
2023/12/05 12:23:56;;;;;;;24.93;14.43;;;0.10;95.00;;;;;;5130056;28;20298;-63
2023/12/05 12:26:25;;;;;;;21.93;13.00;;;0.10;95.60;;;;;;5129627;28;20568;-66
2023/12/05 12:28:54;;;;;;;18.13;11.30;;;0.10;94.50;;;;;;5129784;28;20198;-61
2023/12/05 12:31:26;;;;;;;15.93;10.67;;;0.20;95.30;;;;;;5129960;28;20199;-65
2023/12/05 12:33:56;;;;;;;20.97;11.87;;;0.20;94.20;;;;;;5129818;28;20206;-66
2023/12/05 12:36:25;;;;;;;19.17;11.80;;;0.20;95.90;;;;;;5129862;28;20617;-66
2023/12/05 12:38:55;;;;;;;24.73;14.30;;;0.20;95.80;;;;;;5129865;28;20563;-65
2023/12/05 12:41:26;;;;;;;15.90;10.57;;;0.20;95.30;;;;;;5131768;27;20286;-66